createdAt,value
2022-12-11T04:39:15.704Z,42.40
2022-12-11T04:41:42.309Z,40.25
2022-12-11T04:44:08.851Z,25.67
2022-12-11T04:46:35.660Z,21.60
2022-12-11T04:49:02.329Z,54.15
2022-12-11T04:51:29.199Z,49.35
2022-12-11T04:53:55.711Z,24.48
2022-12-11T04:56:22.355Z,18.55
2022-12-11T04:58:48.863Z,23.05
2022-12-11T05:01:18.537Z,18.83
2022-12-11T05:03:45.510Z,39.25
2022-12-11T05:06:12.369Z,37.38
2022-12-11T05:08:40.339Z,26.70
2022-12-11T05:11:09.752Z,20.05
2022-12-11T05:13:36.330Z,22.33
2022-12-11T05:16:08.214Z,28.10
2022-12-11T05:18:34.979Z,46.35
2022-12-11T05:21:05.206Z,23.60
2022-12-11T05:23:31.702Z,33.00
2022-12-11T05:26:01.905Z,42.95
2022-12-11T05:28:33.592Z,46.10
2022-12-11T05:31:02.300Z,19.65
2022-12-11T05:33:29.297Z,18.20
2022-12-11T05:35:56.759Z,44.00
2022-12-11T05:38:24.024Z,29.67
2022-12-11T05:41:07.231Z,22.02
2022-12-11T05:43:36.585Z,49.10
2022-12-11T05:46:14.779Z,19.42
2022-12-11T05:48:42.743Z,17.42
2022-12-11T05:51:10.311Z,22.35
2022-12-11T05:53:38.093Z,25.40
2022-12-11T05:56:28.895Z,15.32
2022-12-11T05:58:56.501Z,51.90
2022-12-11T06:01:43.101Z,29.42
2022-12-11T06:04:11.582Z,32.63
2022-12-11T06:06:40.330Z,24.30
2022-12-11T06:09:07.519Z,29.60
2022-12-11T06:11:35.595Z,46.95
2022-12-11T06:14:03.632Z,68.95
2022-12-11T06:16:30.244Z,22.65
2022-12-11T06:18:58.361Z,34.67
2022-12-11T06:21:28.490Z,28.38
2022-12-11T06:23:56.593Z,30.17
2022-12-11T10:53:36.415Z,15.75
2022-12-11T10:56:03.136Z,25.40
2022-12-11T10:58:33.941Z,25.48
2022-12-11T11:01:06.404Z,13.05
2022-12-11T11:03:35.505Z,18.50
2022-12-11T11:06:07.907Z,36.55
2022-12-11T11:08:46.838Z,11.07
2022-12-11T11:11:35.034Z,10.38
2022-12-11T11:14:21.918Z,15.95
2022-12-11T11:16:51.801Z,8.50
2022-12-11T11:19:26.840Z,10.20
2022-12-11T11:21:59.214Z,9.65
2022-12-11T11:24:39.621Z,8.32
2022-12-11T11:27:24.561Z,10.38
2022-12-11T11:29:56.908Z,9.75
2022-12-11T11:32:34.561Z,10.00
2022-12-11T11:35:13.587Z,10.32
2022-12-11T11:37:44.569Z,9.60
2022-12-11T11:40:16.928Z,9.80
2022-12-11T11:43:21.036Z,10.45
2022-12-11T11:45:55.289Z,12.02
2022-12-11T11:48:30.978Z,9.85
2022-12-11T11:50:58.372Z,9.07
2022-12-11T11:53:37.307Z,9.35
2022-12-11T11:56:48.932Z,8.27
2022-12-11T11:59:18.409Z,8.90
2022-12-11T12:01:45.018Z,8.63
2022-12-11T12:04:12.256Z,11.60
2022-12-11T12:06:51.169Z,9.13
2022-12-11T12:13:44.356Z,9.07
2022-12-11T12:24:29.336Z,13.70
2022-12-11T12:27:29.189Z,12.68
2022-12-11T12:30:05.904Z,10.68
2022-12-11T12:35:10.204Z,9.82
2022-12-11T12:37:45.902Z,10.50
2022-12-11T12:40:15.210Z,17.25
2022-12-11T12:43:00.220Z,11.93
2022-12-11T12:45:45.479Z,10.05
2022-12-11T12:48:12.093Z,13.18
2022-12-11T12:50:48.702Z,12.77
2022-12-11T12:53:23.911Z,13.55
2022-12-11T12:55:51.876Z,8.93
2022-12-11T12:58:25.726Z,9.23
2022-12-11T13:00:52.539Z,10.13
2022-12-11T13:03:29.319Z,11.52
2022-12-11T13:05:57.720Z,10.07
2022-12-11T13:08:47.137Z,9.00
2022-12-11T13:11:16.731Z,7.13
2022-12-11T13:13:51.618Z,8.20
2022-12-11T13:16:21.198Z,8.82
2022-12-11T13:18:48.408Z,7.03
2022-12-11T13:21:31.592Z,7.28
2022-12-11T13:24:13.528Z,8.68
2022-12-11T13:26:40.665Z,25.58
2022-12-11T13:29:37.369Z,9.55
2022-12-11T13:32:10.006Z,6.95
2022-12-11T13:34:41.289Z,7.00
2022-12-11T13:37:25.031Z,6.97
2022-12-11T13:39:52.465Z,5.90
2022-12-11T13:42:44.249Z,6.72
2022-12-11T13:45:45.201Z,8.18
2022-12-11T13:48:32.275Z,8.45
2022-12-11T13:51:00.323Z,7.07
2022-12-11T13:53:27.029Z,7.68
2022-12-11T13:56:03.216Z,9.32
2022-12-11T13:58:33.950Z,7.18
2022-12-11T14:01:27.679Z,7.78
2022-12-11T14:03:55.863Z,41.92
2022-12-11T14:06:22.960Z,11.90
2022-12-11T14:08:53.476Z,11.90
2022-12-11T14:11:41.584Z,8.43
2022-12-11T14:14:42.142Z,11.52
2022-12-11T14:17:15.665Z,8.48
2022-12-11T14:19:47.908Z,8.10
2022-12-11T14:22:23.916Z,25.20
2022-12-11T14:27:19.614Z,8.30
2022-12-11T14:29:46.819Z,9.55
2022-12-11T14:32:20.383Z,8.48
2022-12-11T18:42:33.572Z,6.85
2022-12-11T18:45:00.920Z,6.78
2022-12-11T18:47:27.612Z,6.90
2022-12-11T18:49:54.152Z,5.47
2022-12-11T18:52:20.684Z,7.90
2022-12-11T18:54:47.637Z,8.27
2022-12-11T18:57:14.237Z,7.80
2022-12-11T18:59:40.908Z,7.18
2022-12-11T19:02:07.862Z,8.95
2022-12-11T19:04:36.132Z,8.60
2022-12-11T19:07:02.745Z,7.70
2022-12-11T19:09:32.775Z,7.30
2022-12-11T19:12:03.937Z,10.35
2022-12-11T19:14:30.515Z,7.07
2022-12-11T19:16:57.140Z,6.40
2022-12-11T19:19:23.796Z,9.82
2022-12-11T19:21:50.662Z,9.13
2022-12-11T19:24:20.859Z,10.48
2022-12-11T19:26:50.518Z,9.73
2022-12-11T19:29:26.597Z,8.93
2022-12-11T19:31:55.181Z,8.05
2022-12-11T19:34:22.450Z,9.68
2022-12-11T19:36:49.445Z,8.75
2022-12-11T19:39:16.155Z,13.20
2022-12-11T19:41:44.098Z,8.57
2022-12-11T19:44:11.253Z,8.88
2022-12-11T19:46:37.958Z,9.00
2022-12-11T19:49:04.943Z,7.40
2022-12-11T19:51:34.050Z,7.68
2022-12-11T19:54:03.041Z,8.52
2022-12-11T19:56:32.366Z,7.97
2022-12-11T19:59:00.853Z,7.85
2022-12-11T20:01:31.019Z,8.50
2022-12-11T20:04:00.799Z,7.82
2022-12-11T20:06:31.402Z,6.93
2022-12-11T20:08:58.896Z,6.30
2022-12-11T20:11:25.560Z,5.80
2022-12-11T20:13:53.904Z,6.00
2022-12-11T20:16:33.626Z,7.60
2022-12-11T20:19:07.602Z,7.40
2022-12-11T20:21:35.443Z,6.72
2022-12-11T20:24:02.221Z,7.18
2022-12-11T20:26:31.017Z,6.85
2022-12-11T20:28:57.736Z,6.30
2022-12-11T20:31:25.817Z,9.50
2022-12-11T20:33:53.358Z,8.60
2022-12-11T20:36:21.812Z,6.20
2022-12-11T20:38:49.117Z,6.35
2022-12-11T20:41:19.092Z,5.20
2022-12-11T20:43:46.083Z,5.97
2022-12-11T20:46:14.944Z,4.93
2022-12-11T20:48:42.728Z,4.65
2022-12-11T20:51:12.439Z,5.47
2022-12-11T20:53:39.853Z,5.90
2022-12-11T20:56:15.126Z,5.32
2022-12-11T20:58:41.729Z,3.72
2022-12-11T21:01:16.654Z,3.88
2022-12-11T21:03:43.334Z,5.60
2022-12-11T21:06:38.623Z,5.32
2022-12-11T21:09:17.911Z,3.33
2022-12-11T21:11:44.574Z,3.35
2022-12-11T21:14:11.083Z,3.42
2022-12-11T21:16:37.878Z,3.90
2022-12-11T21:19:05.890Z,3.25
2022-12-11T21:21:34.496Z,3.38
2022-12-11T21:24:01.097Z,3.28
2022-12-11T21:26:27.654Z,3.95
2022-12-11T21:28:54.258Z,3.65
2022-12-11T21:31:21.457Z,3.63
2022-12-11T21:33:48.675Z,4.50
2022-12-11T21:36:15.906Z,4.72
2022-12-11T21:38:44.163Z,3.45
2022-12-11T21:41:17.725Z,3.67
2022-12-11T21:44:40.831Z,4.00
2022-12-11T21:46:33.207Z,4.80
2022-12-11T21:48:59.750Z,3.47
2022-12-11T21:51:36.840Z,5.18
2022-12-11T21:54:06.938Z,3.92
2022-12-11T21:56:33.918Z,5.05
2022-12-11T21:59:01.588Z,3.80
2022-12-11T22:01:32.009Z,3.58
2022-12-11T22:03:58.985Z,4.25
2022-12-11T22:06:25.591Z,4.70
2022-12-11T22:08:52.180Z,5.03
2022-12-11T22:11:24.512Z,4.43
